Deersville, Ohio
Current Conditions -  °F | °C
As of 12:53 PM on Thursday 23 Oct 2014 (Local Time) from KPHD Reporting Station
Overcast Overcast  
Wind Chill: 55°   Ceiling: 2500
Heat Index: 55°   Visibility: 10mi
Dew Point: 44°   Wind: 10mph
Humidity: 67%   Direction: 310°NW
Pressure: 30.18"   Gusts: 17mph
Location:  40.31°N, 81.19°W
Report Text: KPHD 231653Z AUTO 31009G15KT 10SM OVC025 13/07 A3018 RMK AO2 SLP223 T01280067
Loading
Personal Weather Stations






























Interactive Weather Map
Tropical Storm Tracking
New forecast layout! Learn more

10-Day Weather Forecast

Advertisements
Track Severe Weather on mobile